Time;durP1;ratioP1;P1;durP2;ratioP2;P2;SDS_P1;SDS_P2;PMS_P1;PMS_P2;Temp;Humidity;BMP_temperature;BMP_pressure;BME280_temperature;BME280_humidity;BME280_pressure;Samples;Min_cycle;Max_cycle;Signal;HPM_P1;HPM_P2
2023/10/28 00:00:47;;;;;;;8.82;2.38;;;10.60;99.90;;;;;;5009040;28;20097;-54
2023/10/28 00:03:13;;;;;;;9.85;1.90;;;10.70;99.90;;;;;;5009109;28;20058;-54
2023/10/28 00:05:39;;;;;;;4.60;1.73;;;10.70;99.90;;;;;;5009396;28;20034;-54
2023/10/28 00:08:04;;;;;;;8.40;2.08;;;10.70;99.90;;;;;;5008141;28;20030;-54
2023/10/28 00:10:31;;;;;;;11.07;2.70;;;10.80;99.90;;;;;;5008965;28;20046;-54
2023/10/28 00:12:57;;;;;;;6.38;2.17;;;10.80;99.90;;;;;;5009028;28;20188;-54
2023/10/28 00:15:24;;;;;;;7.40;2.00;;;10.70;99.90;;;;;;5008972;28;20090;-53
2023/10/28 00:17:50;;;;;;;10.23;2.45;;;10.80;99.90;;;;;;5009198;28;20026;-53
2023/10/28 00:20:17;;;;;;;13.82;2.25;;;10.70;99.90;;;;;;5008000;28;20038;-52
2023/10/28 00:22:48;;;;;;;10.98;2.00;;;10.70;99.90;;;;;;5008511;28;20186;-53
2023/10/28 00:25:14;;;;;;;16.77;2.55;;;10.70;99.90;;;;;;5008891;28;20026;-54
2023/10/28 00:27:41;;;;;;;13.27;2.38;;;10.80;99.90;;;;;;5007885;28;20034;-54
2023/10/28 00:30:11;;;;;;;7.82;1.80;;;10.80;99.90;;;;;;5007809;28;20029;-50
2023/10/28 00:32:37;;;;;;;10.35;1.75;;;10.90;99.90;;;;;;5007915;28;20287;-49
2023/10/28 00:35:05;;;;;;;7.32;2.25;;;10.90;99.90;;;;;;5008743;28;20080;-50
2023/10/28 00:37:30;;;;;;;8.70;2.08;;;11.00;99.90;;;;;;5008588;28;20305;-49
2023/10/28 00:39:56;;;;;;;13.55;2.58;;;11.00;99.90;;;;;;5008825;28;20093;-53
2023/10/28 00:42:22;;;;;;;7.53;2.10;;;11.10;99.90;;;;;;5008386;28;20065;-50
2023/10/28 00:44:47;;;;;;;7.40;1.85;;;11.00;99.90;;;;;;5008601;28;20034;-50
2023/10/28 00:47:13;;;;;;;7.28;1.90;;;11.00;99.90;;;;;;5008496;28;20203;-55
2023/10/28 00:49:39;;;;;;;8.48;1.80;;;11.00;99.90;;;;;;5007770;28;20041;-54
2023/10/28 00:52:05;;;;;;;7.53;2.15;;;10.90;99.90;;;;;;5007590;28;20023;-53
2023/10/28 00:54:31;;;;;;;5.68;1.63;;;11.00;99.90;;;;;;5008562;28;20156;-52
2023/10/28 00:56:56;;;;;;;11.27;2.30;;;11.00;99.90;;;;;;5008344;28;20165;-53
2023/10/28 00:59:22;;;;;;;8.68;2.15;;;11.00;99.90;;;;;;5008343;28;20057;-54
2023/10/28 01:01:49;;;;;;;11.27;2.15;;;11.00;99.90;;;;;;5008458;28;20030;-53
2023/10/28 01:04:15;;;;;;;7.15;2.00;;;11.00;99.90;;;;;;5007920;28;20030;-54
2023/10/28 01:06:41;;;;;;;5.00;1.90;;;11.00;99.90;;;;;;5006712;28;20037;-53
2023/10/28 01:09:07;;;;;;;9.13;2.00;;;11.10;99.90;;;;;;5008218;28;20041;-54
2023/10/28 01:11:39;;;;;;;8.02;2.08;;;11.10;99.90;;;;;;5008031;28;20050;-53
2023/10/28 01:14:05;;;;;;;5.20;1.58;;;11.10;99.90;;;;;;5007084;28;20026;-53
2023/10/28 01:16:32;;;;;;;7.15;1.70;;;11.20;99.90;;;;;;5008455;28;20084;-50
2023/10/28 01:18:58;;;;;;;4.65;1.55;;;11.30;99.90;;;;;;5008203;28;20180;-51
2023/10/28 01:21:23;;;;;;;6.57;1.45;;;11.30;99.90;;;;;;5006939;28;20018;-51
2023/10/28 01:23:49;;;;;;;7.65;1.77;;;11.40;99.90;;;;;;5008126;28;20040;-51
2023/10/28 01:26:15;;;;;;;5.00;1.70;;;11.40;99.90;;;;;;5007922;28;20065;-49
2023/10/28 01:28:40;;;;;;;8.23;1.80;;;11.40;99.90;;;;;;5007178;28;20183;-50
2023/10/28 01:31:08;;;;;;;4.57;1.35;;;11.40;99.90;;;;;;5007701;28;20033;-50
2023/10/28 01:33:33;;;;;;;4.82;1.58;;;11.40;99.90;;;;;;5007799;28;20039;-51
2023/10/28 01:35:59;;;;;;;9.13;1.52;;;11.40;99.90;;;;;;5007640;28;20178;-50
2023/10/28 01:38:26;;;;;;;5.43;1.33;;;11.40;99.90;;;;;;5007655;28;20034;-51
2023/10/28 01:40:52;;;;;;;6.00;1.63;;;11.40;99.90;;;;;;5006427;28;20030;-50
2023/10/28 01:43:21;;;;;;;5.65;1.40;;;11.50;99.90;;;;;;5006450;28;20094;-51
2023/10/28 01:45:46;;;;;;;5.95;1.40;;;11.40;99.90;;;;;;5007735;28;20030;-49
2023/10/28 01:48:13;;;;;;;6.07;1.58;;;11.40;99.90;;;;;;5007450;28;20042;-50
2023/10/28 01:50:39;;;;;;;5.18;1.50;;;11.40;99.90;;;;;;5007380;28;20093;-47
2023/10/28 01:53:05;;;;;;;4.15;1.35;;;11.40;99.90;;;;;;5007431;28;20026;-48
2023/10/28 01:55:30;;;;;;;5.95;1.77;;;11.30;99.90;;;;;;5006193;28;20030;-51
2023/10/28 01:57:56;;;;;;;4.80;1.27;;;11.30;99.90;;;;;;5007434;28;20026;-51
2023/10/28 02:00:30;;;;;;;7.60;1.70;;;11.20;99.90;;;;;;5007172;28;20026;-48
2023/10/28 02:02:56;;;;;;;4.82;1.42;;;11.20;99.90;;;;;;5007185;28;20097;-49
2023/10/28 02:05:22;;;;;;;3.35;1.30;;;11.20;99.90;;;;;;5007205;28;20279;-51
2023/10/28 02:07:47;;;;;;;4.45;1.10;;;11.20;99.90;;;;;;5007060;28;20040;-50
2023/10/28 02:10:13;;;;;;;5.85;1.52;;;11.30;99.90;;;;;;5005965;28;20038;-51
2023/10/28 02:12:39;;;;;;;5.13;2.00;;;11.20;99.90;;;;;;5006798;28;20030;-51
2023/10/28 02:15:06;;;;;;;6.45;1.73;;;11.20;99.90;;;;;;5006876;28;20034;-50
2023/10/28 02:17:31;;;;;;;4.60;1.45;;;11.30;99.90;;;;;;5006283;28;20049;-50
2023/10/28 02:19:57;;;;;;;5.53;1.58;;;11.20;99.90;;;;;;5006889;28;20018;-50
2023/10/28 02:22:23;;;;;;;6.85;1.55;;;11.20;99.90;;;;;;5006588;28;20171;-51
2023/10/28 02:24:49;;;;;;;4.57;1.60;;;11.10;99.90;;;;;;5007269;28;20042;-51
2023/10/28 02:27:15;;;;;;;6.50;1.40;;;11.10;99.90;;;;;;5006714;28;20022;-50
2023/10/28 02:29:40;;;;;;;3.90;1.30;;;11.10;99.90;;;;;;5006397;28;20148;-51
2023/10/28 02:32:09;;;;;;;3.78;1.33;;;11.00;99.90;;;;;;5006219;28;20198;-50
2023/10/28 02:34:35;;;;;;;4.97;1.50;;;11.00;99.90;;;;;;5006832;28;20030;-50
2023/10/28 02:37:01;;;;;;;5.45;1.33;;;11.00;99.90;;;;;;5005675;28;20030;-51
2023/10/28 02:39:26;;;;;;;4.15;1.30;;;11.00;99.90;;;;;;5006643;28;20109;-50
2023/10/28 02:41:53;;;;;;;5.78;1.75;;;11.00;99.90;;;;;;5006615;28;20030;-50
2023/10/28 02:44:19;;;;;;;3.67;1.20;;;10.90;99.90;;;;;;5006614;28;20072;-50
2023/10/28 02:46:44;;;;;;;5.10;1.27;;;10.90;99.90;;;;;;5006397;28;20191;-51
2023/10/28 02:49:11;;;;;;;6.68;1.48;;;10.90;99.90;;;;;;5006276;28;20072;-48
2023/10/28 02:51:37;;;;;;;5.07;1.45;;;10.90;99.90;;;;;;5006455;28;20057;-50
2023/10/28 02:54:03;;;;;;;5.88;1.50;;;10.80;99.90;;;;;;5006332;28;20037;-51
2023/10/28 02:56:29;;;;;;;5.60;1.27;;;10.80;99.90;;;;;;5006298;28;20179;-48
2023/10/28 02:58:55;;;;;;;2.08;1.15;;;10.70;99.90;;;;;;5006301;28;20036;-48
2023/10/28 03:01:20;;;;;;;4.60;1.40;;;10.70;99.90;;;;;;5006297;28;20093;-48
2023/10/28 03:03:46;;;;;;;4.03;1.40;;;10.60;99.90;;;;;;5006292;28;20050;-47
2023/10/28 03:06:12;;;;;;;3.70;1.90;;;10.60;99.90;;;;;;5006297;28;20036;-49
2023/10/28 03:08:38;;;;;;;6.20;2.25;;;10.50;99.90;;;;;;5004997;28;20214;-49
2023/10/28 03:11:04;;;;;;;4.90;1.90;;;10.40;99.90;;;;;;5005969;28;20054;-50
2023/10/28 03:13:30;;;;;;;5.85;1.65;;;10.40;99.90;;;;;;5006130;28;20050;-51
2023/10/28 03:15:56;;;;;;;4.45;1.77;;;10.30;99.90;;;;;;5004866;28;20161;-51
2023/10/28 03:18:22;;;;;;;5.53;1.73;;;10.30;99.90;;;;;;5005174;28;20034;-51
2023/10/28 03:20:48;;;;;;;3.80;2.15;;;10.30;99.90;;;;;;5005923;28;20026;-51
2023/10/28 03:23:14;;;;;;;5.18;1.55;;;10.30;99.90;;;;;;5006074;28;20301;-50
2023/10/28 03:25:40;;;;;;;7.80;1.60;;;10.20;99.90;;;;;;5006147;28;20053;-51
2023/10/28 03:28:05;;;;;;;2.72;1.45;;;10.20;99.90;;;;;;5006331;28;20085;-51
2023/10/28 03:30:31;;;;;;;4.38;1.55;;;10.20;99.90;;;;;;5009801;28;20295;-51
2023/10/28 03:32:57;;;;;;;3.78;1.35;;;10.20;99.90;;;;;;5009718;28;20034;-51
2023/10/28 03:35:23;;;;;;;5.20;1.42;;;10.20;99.90;;;;;;5009572;28;20342;-51
2023/10/28 03:37:48;;;;;;;3.53;1.58;;;10.10;99.90;;;;;;5010001;28;20034;-51
2023/10/28 03:40:14;;;;;;;6.30;1.70;;;10.00;99.90;;;;;;5008867;28;20057;-50
2023/10/28 03:42:40;;;;;;;3.08;1.25;;;10.00;99.90;;;;;;5009795;28;20057;-49
2023/10/28 03:45:09;;;;;;;2.20;1.58;;;10.00;99.90;;;;;;5009641;28;20026;-48
2023/10/28 03:47:35;;;;;;;3.73;1.30;;;9.90;99.90;;;;;;5009998;28;20287;-48
2023/10/28 03:50:00;;;;;;;4.70;1.60;;;9.90;99.90;;;;;;5009232;28;20157;-49
2023/10/28 03:52:27;;;;;;;6.88;1.58;;;9.80;99.90;;;;;;5009584;28;20081;-49
2023/10/28 03:54:52;;;;;;;5.28;1.48;;;9.80;99.90;;;;;;5009394;28;20101;-50
2023/10/28 03:57:18;;;;;;;3.28;1.40;;;9.80;99.90;;;;;;5009483;28;20022;-48
2023/10/28 03:59:46;;;;;;;4.63;1.52;;;9.80;99.90;;;;;;5008630;28;20038;-48
2023/10/28 04:02:11;;;;;;;6.45;1.50;;;9.80;99.90;;;;;;5009595;28;20045;-51
2023/10/28 04:04:37;;;;;;;7.53;1.70;;;9.80;99.90;;;;;;5009042;28;20026;-48
2023/10/28 04:07:03;;;;;;;2.72;1.45;;;9.70;99.90;;;;;;5009510;28;20026;-49
2023/10/28 04:09:29;;;;;;;6.55;1.48;;;9.70;99.90;;;;;;5009217;28;20034;-51
2023/10/28 04:11:55;;;;;;;7.32;1.80;;;9.70;99.90;;;;;;5009294;28;20037;-50
2023/10/28 04:14:20;;;;;;;5.45;1.35;;;9.80;99.90;;;;;;5009177;28;20116;-51
2023/10/28 04:16:46;;;;;;;2.75;1.30;;;9.80;99.90;;;;;;5009212;28;20045;-50
2023/10/28 04:19:12;;;;;;;5.10;1.35;;;9.90;99.90;;;;;;5009383;28;20283;-51
2023/10/28 04:21:38;;;;;;;3.95;1.42;;;9.90;99.90;;;;;;5008799;28;20306;-50
2023/10/28 04:24:04;;;;;;;5.35;1.45;;;10.00;99.90;;;;;;5009155;28;20041;-50
2023/10/28 04:26:30;;;;;;;4.80;1.58;;;10.00;99.90;;;;;;5009137;28;20034;-48
2023/10/28 04:29:00;;;;;;;3.47;1.30;;;10.10;99.90;;;;;;5007890;28;20082;-51
2023/10/28 04:31:28;;;;;;;5.70;1.75;;;10.10;99.90;;;;;;5008879;28;20030;-49
2023/10/28 04:33:53;;;;;;;5.25;1.50;;;10.10;99.90;;;;;;5009070;28;20057;-50
2023/10/28 04:36:19;;;;;;;5.03;1.40;;;10.20;99.90;;;;;;5008589;28;20030;-49
2023/10/28 04:38:44;;;;;;;3.80;1.38;;;10.20;99.90;;;;;;5007654;28;20050;-50
2023/10/28 04:41:10;;;;;;;7.40;1.70;;;10.30;99.90;;;;;;5007871;28;20030;-52
2023/10/28 04:43:36;;;;;;;2.70;1.40;;;10.30;99.90;;;;;;5008768;28;20219;-49
2023/10/28 04:46:01;;;;;;;3.42;1.45;;;10.30;99.90;;;;;;5008732;28;20038;-48
2023/10/28 04:48:28;;;;;;;3.08;1.40;;;10.40;99.90;;;;;;5008523;28;20131;-50
2023/10/28 04:50:55;;;;;;;2.50;1.45;;;10.40;99.90;;;;;;5008669;28;20090;-50
2023/10/28 04:53:22;;;;;;;13.73;2.05;;;10.40;99.90;;;;;;5008183;28;20092;-50
2023/10/28 04:55:48;;;;;;;5.05;1.40;;;10.40;99.90;;;;;;5008615;28;20022;-50
2023/10/28 04:58:14;;;;;;;5.60;1.40;;;10.50;99.90;;;;;;5008612;28;20096;-50
2023/10/28 05:00:40;;;;;;;3.97;1.40;;;10.50;99.90;;;;;;5008525;28;20250;-50
2023/10/28 05:03:06;;;;;;;5.55;1.70;;;10.50;99.90;;;;;;5008445;28;20030;-47
2023/10/28 05:05:31;;;;;;;5.07;1.55;;;10.60;99.90;;;;;;5007176;28;20122;-49
2023/10/28 05:07:57;;;;;;;3.63;1.60;;;10.60;99.90;;;;;;5008335;28;20084;-50
2023/10/28 05:10:23;;;;;;;3.80;1.35;;;10.60;99.90;;;;;;5007989;28;20061;-48
2023/10/28 05:12:49;;;;;;;3.00;1.30;;;10.60;99.90;;;;;;5008081;28;20093;-49
2023/10/28 05:15:15;;;;;;;3.90;1.40;;;10.50;99.90;;;;;;5008090;28;20042;-50
2023/10/28 05:17:41;;;;;;;2.97;1.42;;;10.40;99.90;;;;;;5008121;28;20034;-48
2023/10/28 05:20:07;;;;;;;2.97;1.30;;;10.30;99.90;;;;;;5008123;28;20113;-47
2023/10/28 05:22:37;;;;;;;5.85;2.17;;;10.30;99.90;;;;;;5007102;28;20026;-50
2023/10/28 05:25:07;;;;;;;4.90;1.70;;;10.20;99.90;;;;;;5008154;28;20041;-50
2023/10/28 05:27:33;;;;;;;3.35;1.30;;;10.20;99.90;;;;;;5008237;28;20030;-51
2023/10/28 05:29:59;;;;;;;3.08;1.17;;;10.20;99.90;;;;;;5007901;28;20038;-49
2023/10/28 05:32:29;;;;;;;3.13;1.35;;;10.10;99.90;;;;;;5007369;28;20034;-51
2023/10/28 05:34:56;;;;;;;3.67;1.50;;;10.10;99.90;;;;;;5007827;28;20023;-50
2023/10/28 05:37:22;;;;;;;5.78;1.50;;;10.10;99.90;;;;;;5007832;28;20105;-51
2023/10/28 05:39:47;;;;;;;3.63;1.75;;;10.00;99.90;;;;;;5006729;28;20038;-50
2023/10/28 05:42:16;;;;;;;8.98;1.60;;;10.00;99.90;;;;;;5006619;28;20022;-50
2023/10/28 05:44:42;;;;;;;4.00;1.83;;;10.00;99.90;;;;;;5007570;28;20045;-51
2023/10/28 05:47:08;;;;;;;7.25;1.60;;;10.00;99.90;;;;;;5007459;28;20055;-51
2023/10/28 05:49:34;;;;;;;6.53;1.50;;;9.90;99.90;;;;;;5007581;28;20148;-51
2023/10/28 05:52:00;;;;;;;3.83;1.85;;;9.90;99.90;;;;;;5007360;28;20056;-50
2023/10/28 05:54:25;;;;;;;7.50;3.20;;;9.90;99.90;;;;;;5006093;28;20030;-50
2023/10/28 05:56:51;;;;;;;18.67;6.40;;;10.00;99.90;;;;;;5007277;28;20037;-50
2023/10/28 05:59:17;;;;;;;9.73;2.90;;;10.00;99.90;;;;;;5007363;28;20094;-51
2023/10/28 06:01:42;;;;;;;7.22;2.40;;;10.10;99.90;;;;;;5007351;28;20026;-48
2023/10/28 06:04:09;;;;;;;6.57;1.75;;;10.20;99.90;;;;;;5007366;28;20034;-48
2023/10/28 06:06:35;;;;;;;6.50;1.63;;;10.30;99.90;;;;;;5007037;28;20176;-50
2023/10/28 06:09:00;;;;;;;7.43;1.40;;;10.50;99.90;;;;;;5006706;28;20081;-48
2023/10/28 06:11:26;;;;;;;4.47;1.27;;;10.60;99.90;;;;;;5005924;28;20050;-51
2023/10/28 06:13:52;;;;;;;3.33;1.30;;;10.70;99.90;;;;;;5007115;28;20041;-50
2023/10/28 06:16:21;;;;;;;3.25;1.10;;;10.80;99.90;;;;;;5006019;28;20097;-48
2023/10/28 06:18:47;;;;;;;3.85;1.20;;;10.90;99.90;;;;;;5006766;28;20038;-51
2023/10/28 06:21:16;;;;;;;3.80;1.52;;;11.00;99.90;;;;;;5006835;28;20045;-51
2023/10/28 06:23:42;;;;;;;7.63;1.40;;;11.00;99.90;;;;;;5006955;28;20299;-49
2023/10/28 06:26:10;;;;;;;2.13;0.93;;;11.00;99.90;;;;;;5006858;28;20026;-51
2023/10/28 06:28:37;;;;;;;6.50;1.38;;;11.00;99.90;;;;;;5006897;28;20038;-51
2023/10/28 06:31:03;;;;;;;12.13;4.63;;;11.00;99.90;;;;;;5006536;28;20033;-51
2023/10/28 06:33:28;;;;;;;11.23;4.18;;;11.00;99.90;;;;;;5006626;28;20018;-51
2023/10/28 06:35:54;;;;;;;6.28;2.70;;;11.00;99.90;;;;;;5006505;28;20034;-50
2023/10/28 06:38:20;;;;;;;6.88;2.65;;;11.00;99.90;;;;;;5006406;28;20034;-51
2023/10/28 06:40:49;;;;;;;6.47;1.95;;;11.00;99.90;;;;;;5005943;28;20030;-51
2023/10/28 06:43:15;;;;;;;5.20;1.77;;;11.00;99.90;;;;;;5006465;28;20073;-50
2023/10/28 06:45:41;;;;;;;3.85;1.63;;;11.00;99.90;;;;;;5006282;28;20266;-51
2023/10/28 06:48:07;;;;;;;5.63;1.63;;;10.90;99.90;;;;;;5006218;28;20026;-51
2023/10/28 06:50:32;;;;;;;6.20;1.80;;;11.00;99.90;;;;;;5006112;28;20336;-51
2023/10/28 06:52:59;;;;;;;3.80;1.17;;;10.90;99.90;;;;;;5006129;28;20030;-51
2023/10/28 06:55:26;;;;;;;3.17;1.10;;;10.90;99.90;;;;;;5006090;28;20037;-51
2023/10/28 06:57:53;;;;;;;3.95;1.85;;;10.90;99.90;;;;;;5006380;28;20038;-50
2023/10/28 07:00:21;;;;;;;7.78;2.95;;;11.00;99.90;;;;;;5005670;28;20036;-51
2023/10/28 07:02:46;;;;;;;5.97;1.73;;;10.90;99.90;;;;;;5005516;28;20085;-50
2023/10/28 07:05:14;;;;;;;9.02;3.00;;;11.00;99.90;;;;;;5005847;28;20042;-52
2023/10/28 07:07:39;;;;;;;9.43;2.78;;;11.00;99.90;;;;;;5004846;28;20108;-50
2023/10/28 07:10:06;;;;;;;10.70;5.05;;;11.00;99.90;;;;;;5005676;28;20054;-48
2023/10/28 07:12:31;;;;;;;13.35;5.68;;;11.00;99.90;;;;;;5005774;28;20038;-51
2023/10/28 07:14:58;;;;;;;9.77;4.55;;;10.90;99.90;;;;;;5005529;28;20029;-48
2023/10/28 07:17:24;;;;;;;9.93;5.43;;;10.90;99.90;;;;;;5005644;28;20026;-50
2023/10/28 07:19:50;;;;;;;10.15;4.57;;;10.90;99.90;;;;;;5004744;28;20038;-51
2023/10/28 07:22:16;;;;;;;12.65;3.00;;;10.90;99.90;;;;;;5004798;28;20045;-49
2023/10/28 07:24:42;;;;;;;9.63;3.00;;;10.90;99.90;;;;;;5005622;28;20041;-51
2023/10/28 07:27:08;;;;;;;9.88;3.50;;;10.90;99.90;;;;;;5004686;28;20038;-48
2023/10/28 07:29:34;;;;;;;12.20;5.03;;;11.00;99.90;;;;;;5005374;28;20097;-50
2023/10/28 07:32:00;;;;;;;8.77;3.63;;;11.00;99.90;;;;;;5005502;28;20046;-51
2023/10/28 07:34:26;;;;;;;8.15;2.40;;;11.10;99.90;;;;;;5005507;28;20035;-51
2023/10/28 07:36:51;;;;;;;6.78;2.42;;;11.10;99.90;;;;;;5005434;28;20094;-49
2023/10/28 07:39:17;;;;;;;8.05;2.75;;;11.10;99.90;;;;;;5005387;28;20291;-52
2023/10/28 07:41:43;;;;;;;8.80;2.13;;;11.20;99.90;;;;;;5005262;28;20054;-51
2023/10/28 07:44:08;;;;;;;8.88;2.35;;;11.20;99.90;;;;;;5005440;28;20022;-51
2023/10/28 07:46:34;;;;;;;5.85;2.10;;;11.30;99.90;;;;;;5005034;28;20152;-49
2023/10/28 07:49:00;;;;;;;8.20;2.53;;;11.50;99.90;;;;;;5005435;28;20317;-48
2023/10/28 07:51:26;;;;;;;7.22;2.55;;;11.80;99.90;;;;;;5005431;28;20352;-52
2023/10/28 07:53:52;;;;;;;9.30;2.60;;;12.00;99.90;;;;;;5005601;28;20022;-51
2023/10/28 07:56:18;;;;;;;12.65;4.63;;;12.30;99.90;;;;;;5004355;28;20081;-51
2023/10/28 07:58:44;;;;;;;12.35;2.90;;;12.50;99.90;;;;;;5005140;28;20140;-51
2023/10/28 08:01:17;;;;;;;8.00;2.40;;;12.60;99.90;;;;;;5005089;28;20026;-52
2023/10/28 08:03:44;;;;;;;9.10;2.65;;;12.70;99.90;;;;;;5005325;28;20044;-49
2023/10/28 08:06:10;;;;;;;16.70;4.88;;;12.70;99.90;;;;;;5005288;28;20041;-48
2023/10/28 08:08:36;;;;;;;9.52;3.67;;;12.60;99.90;;;;;;5005228;28;20129;-49
2023/10/28 08:11:08;;;;;;;9.07;2.80;;;12.50;99.90;;;;;;5005239;28;20227;-48
2023/10/28 08:13:35;;;;;;;6.60;1.88;;;12.50;99.90;;;;;;5004344;28;20239;-51
2023/10/28 08:16:01;;;;;;;9.75;2.28;;;12.40;99.90;;;;;;5006908;28;20053;-51
2023/10/28 08:18:30;;;;;;;9.23;2.63;;;12.30;99.90;;;;;;5008444;28;20218;-51
2023/10/28 08:20:56;;;;;;;10.13;2.58;;;12.40;99.90;;;;;;5008987;28;20034;-51
2023/10/28 08:23:21;;;;;;;12.65;3.03;;;12.40;99.90;;;;;;5008400;28;20022;-51
2023/10/28 08:25:47;;;;;;;10.25;2.88;;;12.40;99.90;;;;;;5008762;28;20041;-51
2023/10/28 08:28:13;;;;;;;7.35;2.03;;;12.40;99.90;;;;;;5008495;28;20122;-51
2023/10/28 08:30:38;;;;;;;8.15;2.00;;;12.50;99.90;;;;;;5008093;28;20026;-51
2023/10/28 08:33:04;;;;;;;10.13;3.08;;;12.40;99.90;;;;;;5007397;28;20026;-52
2023/10/28 08:35:30;;;;;;;5.20;1.70;;;12.40;99.90;;;;;;4990833;28;20027;-51
2023/10/28 08:37:55;;;;;;;6.57;1.60;;;12.40;99.90;;;;;;5008140;28;20030;-51
2023/10/28 08:40:21;;;;;;;10.20;2.08;;;12.40;99.90;;;;;;5008099;28;20045;-52
2023/10/28 08:42:47;;;;;;;9.98;3.40;;;12.40;99.90;;;;;;5008275;28;20038;-50
2023/10/28 08:45:13;;;;;;;9.68;2.28;;;12.40;99.90;;;;;;5006656;28;20137;-52
2023/10/28 08:47:40;;;;;;;8.35;3.05;;;12.50;99.90;;;;;;5007454;28;20234;-51
2023/10/28 08:50:09;;;;;;;7.10;2.30;;;12.50;99.90;;;;;;5007834;28;20030;-51
2023/10/28 08:52:38;;;;;;;7.82;2.13;;;12.60;99.90;;;;;;5006656;28;20279;-52
2023/10/28 08:55:04;;;;;;;7.43;1.83;;;12.60;99.90;;;;;;4990515;28;20126;-52
2023/10/28 08:57:31;;;;;;;8.82;4.18;;;12.60;99.90;;;;;;5007654;28;20180;-51
2023/10/28 08:59:56;;;;;;;9.57;4.53;;;12.70;99.90;;;;;;5006513;28;20037;-51
2023/10/28 09:02:23;;;;;;;4.78;1.50;;;12.70;99.90;;;;;;5006455;28;20038;-50
2023/10/28 09:04:48;;;;;;;2.78;1.15;;;12.90;99.90;;;;;;5007311;28;20058;-50
2023/10/28 09:07:14;;;;;;;6.88;2.15;;;13.10;99.90;;;;;;5007005;28;20263;-50
2023/10/28 09:09:40;;;;;;;7.15;2.53;;;13.30;99.90;;;;;;5007211;28;20026;-48
2023/10/28 09:12:09;;;;;;;7.95;2.40;;;13.40;99.90;;;;;;5007405;28;20351;-47
2023/10/28 09:14:34;;;;;;;6.93;3.95;;;13.60;99.90;;;;;;4989809;28;20037;-47
2023/10/28 09:17:03;;;;;;;3.55;1.38;;;14.60;99.90;;;;;;5006912;28;20030;-48
2023/10/28 09:19:29;;;;;;;3.05;1.40;;;14.60;99.90;;;;;;5006649;28;20045;-50
2023/10/28 09:21:55;;;;;;;3.10;1.05;;;15.30;99.90;;;;;;5006986;28;20034;-48
2023/10/28 09:24:21;;;;;;;7.07;1.90;;;16.10;99.90;;;;;;5006735;28;20037;-51
2023/10/28 09:26:50;;;;;;;4.85;1.65;;;16.90;99.90;;;;;;5006212;28;20030;-50
2023/10/28 09:29:30;;;;;;;5.38;1.92;;;17.00;99.90;;;;;;5006628;28;20026;-48
2023/10/28 09:32:06;;;;;;;7.70;2.10;;;16.80;99.90;;;;;;5006516;28;20097;-50
2023/10/28 09:34:34;;;;;;;8.63;3.90;;;16.50;99.90;;;;;;5006578;28;20038;-51
2023/10/28 09:37:00;;;;;;;8.77;3.38;;;16.80;99.90;;;;;;5006324;28;20097;-50
2023/10/28 09:39:26;;;;;;;10.35;4.25;;;16.80;99.90;;;;;;5005260;28;20165;-51
2023/10/28 09:41:52;;;;;;;22.63;7.00;;;17.20;99.90;;;;;;5006510;28;20030;-51
2023/10/28 09:44:19;;;;;;;21.23;9.93;;;17.40;99.90;;;;;;5004952;28;20105;-50
2023/10/28 09:46:45;;;;;;;10.05;6.03;;;17.30;99.90;;;;;;5004865;28;20040;-50
2023/10/28 09:49:11;;;;;;;6.43;1.67;;;18.00;99.90;;;;;;5005026;28;20081;-51
2023/10/28 09:51:36;;;;;;;4.10;1.90;;;18.00;99.90;;;;;;5005295;28;20087;-51
2023/10/28 09:54:05;;;;;;;5.32;2.45;;;18.20;99.90;;;;;;5004250;28;20022;-51
2023/10/28 09:56:36;;;;;;;6.45;1.77;;;18.50;99.90;;;;;;4988537;28;20082;-52
2023/10/28 09:59:07;;;;;;;5.95;1.05;;;19.00;99.90;;;;;;5004498;28;20065;-51
2023/10/28 10:01:59;;;;;;;5.30;1.42;;;18.80;98.50;;;;;;5004848;28;20149;-52
2023/10/28 10:04:49;;;;;;;5.18;2.92;;;18.60;98.00;;;;;;5005920;28;20280;-51
2023/10/28 10:07:16;;;;;;;;;;;18.10;99.90;;;;;;5005176;28;20112;-50
2023/10/28 10:09:42;;;;;;;8.65;2.35;;;17.60;99.90;;;;;;5004732;28;19909;-50
2023/10/28 10:12:08;;;;;;;4.88;1.35;;;17.70;99.90;;;;;;5006177;28;20101;-51
2023/10/28 10:14:33;;;;;;;5.50;1.38;;;17.10;99.90;;;;;;5005652;28;20176;-51
2023/10/28 10:17:06;;;;;;;5.50;2.83;;;17.10;99.90;;;;;;5004594;28;20109;-52
2023/10/28 10:19:34;;;;;;;6.45;1.67;;;17.20;99.90;;;;;;5005496;28;20018;-49
2023/10/28 10:22:03;;;;;;;4.40;1.65;;;17.30;99.90;;;;;;5005390;28;20160;-51
2023/10/28 10:24:28;;;;;;;3.50;1.60;;;16.40;99.90;;;;;;5004643;28;20058;-51
2023/10/28 10:27:01;;;;;;;5.07;1.45;;;15.60;99.90;;;;;;5004532;28;20092;-51
2023/10/28 10:29:28;;;;;;;10.00;3.00;;;15.30;99.90;;;;;;4987352;28;20103;-52
2023/10/28 10:31:58;;;;;;;6.97;2.95;;;15.10;99.90;;;;;;5005460;28;20291;-52
2023/10/28 10:34:34;;;;;;;8.63;3.63;;;15.00;99.90;;;;;;5003170;28;20050;-51
2023/10/28 10:37:00;;;;;;;6.53;2.05;;;15.00;99.90;;;;;;5004644;28;20117;-52
2023/10/28 10:39:26;;;;;;;11.13;5.55;;;14.80;99.90;;;;;;5003653;28;20078;-51
2023/10/28 10:41:56;;;;;;;10.32;3.80;;;14.70;99.90;;;;;;5003221;28;20030;-51
2023/10/28 10:44:28;;;;;;;;;;;14.60;99.90;;;;;;5004024;28;20038;-51
2023/10/28 10:46:56;;;;;;;7.07;1.80;;;14.50;99.90;;;;;;5004291;28;19916;-51
2023/10/28 10:49:21;;;;;;;4.57;1.77;;;14.40;99.90;;;;;;5003314;28;20095;-51
2023/10/28 10:51:47;;;;;;;8.20;3.80;;;14.40;99.90;;;;;;5004667;28;20042;-50
2023/10/28 10:54:16;;;;;;;10.02;3.92;;;14.40;99.90;;;;;;5003018;28;20018;-51
2023/10/28 10:56:41;;;;;;;7.70;1.70;;;14.40;99.90;;;;;;5004183;28;20030;-49
2023/10/28 10:59:07;;;;;;;6.55;1.70;;;14.30;99.90;;;;;;5003947;28;20097;-52
2023/10/28 11:01:33;;;;;;;6.57;1.77;;;14.20;99.90;;;;;;5004115;28;20030;-50
2023/10/28 11:03:59;;;;;;;8.27;2.05;;;14.20;99.90;;;;;;5004568;28;20030;-48
2023/10/28 11:06:24;;;;;;;7.80;2.95;;;14.20;99.90;;;;;;5003867;28;20089;-48
2023/10/28 11:08:51;;;;;;;2.78;1.33;;;14.30;99.90;;;;;;5003016;28;20050;-51
2023/10/28 11:11:17;;;;;;;5.88;2.60;;;14.40;99.90;;;;;;5003994;28;20045;-49
2023/10/28 11:13:44;;;;;;;11.57;4.88;;;15.00;99.90;;;;;;5004475;28;20030;-50
2023/10/28 11:16:22;;;;;;;5.20;2.67;;;15.20;99.90;;;;;;5004288;28;20077;-49
2023/10/28 11:18:48;;;;;;;8.57;3.50;;;14.90;99.90;;;;;;5003617;28;20093;-52
2023/10/28 11:21:15;;;;;;;6.03;4.25;;;14.90;99.90;;;;;;5004360;28;20030;-51
2023/10/28 11:23:40;;;;;;;6.55;3.13;;;14.70;99.90;;;;;;5003048;28;20030;-49
2023/10/28 11:26:06;;;;;;;5.75;1.95;;;14.70;99.90;;;;;;5004340;28;20033;-51
2023/10/28 11:28:33;;;;;;;4.05;2.05;;;14.80;99.90;;;;;;5003802;28;20038;-49
2023/10/28 11:30:59;;;;;;;7.13;2.80;;;15.10;99.90;;;;;;5003856;28;20025;-50
2023/10/28 11:33:27;;;;;;;4.93;2.05;;;15.30;99.90;;;;;;5004142;28;20110;-52
2023/10/28 11:35:53;;;;;;;6.18;2.13;;;15.40;99.90;;;;;;5004257;28;20142;-51
2023/10/28 11:38:19;;;;;;;4.60;2.20;;;15.60;99.90;;;;;;5003829;28;20026;-51
2023/10/28 11:40:45;;;;;;;5.57;1.90;;;15.40;99.90;;;;;;5003689;28;20160;-50
2023/10/28 11:43:15;;;;;;;4.47;2.15;;;15.30;99.90;;;;;;5002561;28;20034;-51
2023/10/28 11:45:41;;;;;;;5.68;2.40;;;15.10;99.90;;;;;;5002187;28;20291;-50
2023/10/28 11:48:08;;;;;;;6.10;2.45;;;14.90;99.90;;;;;;5002107;28;20061;-50
2023/10/28 11:50:34;;;;;;;11.90;6.20;;;14.70;99.90;;;;;;5006041;28;20255;-48
2023/10/28 11:53:00;;;;;;;5.93;3.22;;;14.90;99.90;;;;;;5006110;28;20030;-48
2023/10/28 11:55:26;;;;;;;7.82;2.30;;;14.90;99.90;;;;;;5007675;28;20093;-50
2023/10/28 11:57:51;;;;;;;8.48;3.33;;;15.00;99.90;;;;;;5007541;28;20261;-51
2023/10/28 12:00:17;;;;;;;6.93;2.75;;;15.20;99.90;;;;;;5007757;28;20097;-48
2023/10/28 12:02:43;;;;;;;3.97;1.40;;;15.10;99.90;;;;;;5007446;28;20060;-51
2023/10/28 12:05:09;;;;;;;5.65;2.38;;;14.90;99.90;;;;;;5007091;28;20160;-50
2023/10/28 12:07:35;;;;;;;6.50;1.98;;;15.10;99.90;;;;;;5006999;28;20090;-51
2023/10/28 12:10:06;;;;;;;5.93;1.92;;;15.60;99.90;;;;;;5006524;28;20188;-49
2023/10/28 12:12:32;;;;;;;6.47;3.10;;;15.90;99.90;;;;;;5007370;28;20022;-49
2023/10/28 12:14:57;;;;;;;6.03;2.45;;;16.10;99.90;;;;;;5007018;28;20049;-51
2023/10/28 12:17:23;;;;;;;3.20;1.50;;;17.70;99.90;;;;;;5006507;28;20058;-49
2023/10/28 12:19:49;;;;;;;3.35;1.20;;;19.10;99.90;;;;;;5006392;28;20256;-50
2023/10/28 12:22:15;;;;;;;4.57;1.58;;;18.30;99.90;;;;;;5007147;28;20041;-49
2023/10/28 12:24:40;;;;;;;4.30;2.58;;;17.40;99.90;;;;;;5006452;28;20247;-51
2023/10/28 12:27:06;;;;;;;8.82;4.00;;;16.70;99.90;;;;;;5006129;28;20045;-49
2023/10/28 12:29:31;;;;;;;3.38;1.38;;;16.20;99.90;;;;;;5005738;28;20034;-49
2023/10/28 12:31:57;;;;;;;7.05;1.80;;;15.70;99.90;;;;;;5007267;28;20045;-51
2023/10/28 12:34:23;;;;;;;24.83;8.65;;;15.30;99.90;;;;;;5006158;28;20063;-52
2023/10/28 12:36:49;;;;;;;8.88;3.88;;;15.10;99.90;;;;;;5006399;28;20033;-52
2023/10/28 12:39:16;;;;;;;7.88;2.78;;;15.00;99.90;;;;;;5006247;28;20105;-52
2023/10/28 12:41:44;;;;;;;8.88;4.78;;;15.00;99.90;;;;;;5006692;28;20033;-51